createdAt,value
2022-08-31T00:00:38.671Z,0.00
2022-08-31T00:01:38.382Z,0.00
2022-08-31T00:02:37.985Z,0.00
2022-08-31T00:03:39.068Z,0.00
2022-08-31T00:04:38.456Z,0.00
2022-08-31T00:05:38.661Z,0.00
2022-08-31T00:06:39.906Z,0.00
2022-08-31T00:07:40.368Z,0.00
2022-08-31T00:08:38.564Z,0.00
2022-08-31T00:09:38.864Z,0.00
2022-08-31T00:10:39.173Z,0.00
2022-08-31T00:11:41.351Z,0.00
2022-08-31T00:12:39.857Z,0.00
2022-08-31T00:13:40.192Z,0.00
2022-08-31T00:14:42.376Z,0.00
2022-08-31T00:15:40.761Z,0.00
2022-08-31T00:16:43.022Z,0.00
2022-08-31T00:17:42.140Z,0.00
2022-08-31T00:18:43.327Z,0.00
2022-08-31T00:19:44.001Z,0.00
2022-08-31T00:20:44.192Z,0.00
2022-08-31T00:21:42.764Z,0.00
2022-08-31T00:22:44.881Z,0.00
2022-08-31T00:23:45.054Z,0.00
2022-08-31T00:24:45.245Z,0.00
2022-08-31T00:25:45.396Z,0.00
2022-08-31T00:26:46.100Z,0.00
2022-08-31T00:27:44.490Z,0.00
2022-08-31T00:28:45.688Z,0.00
2022-08-31T00:29:46.842Z,0.00
2022-08-31T00:30:46.036Z,0.00
2022-08-31T00:31:47.303Z,0.00
2022-08-31T00:32:47.422Z,0.00
2022-08-31T00:33:46.163Z,0.00
2022-08-31T00:34:47.394Z,0.00
2022-08-31T00:35:48.737Z,0.00
2022-08-31T00:36:47.000Z,0.00
2022-08-31T00:37:47.300Z,0.00
2022-08-31T00:38:47.606Z,0.00
2022-08-31T00:39:48.706Z,0.00
2022-08-31T00:40:50.177Z,0.00
2022-08-31T00:41:48.531Z,0.00
2022-08-31T00:42:48.836Z,0.00
2022-08-31T00:43:49.138Z,0.00
2022-08-31T00:44:50.272Z,0.00
2022-08-31T00:45:51.729Z,0.00
2022-08-31T00:46:50.070Z,0.00
2022-08-31T00:47:52.257Z,0.00
2022-08-31T00:48:50.629Z,0.00
2022-08-31T00:49:54.813Z,0.00
2022-08-31T00:50:53.056Z,0.00
2022-08-31T00:51:53.331Z,0.00
2022-08-31T00:52:53.471Z,0.00
2022-08-31T00:53:52.106Z,0.00
2022-08-31T00:54:55.466Z,0.00
2022-08-31T00:55:54.521Z,0.00
2022-08-31T00:56:53.035Z,0.00
2022-08-31T00:57:55.217Z,0.00
2022-08-31T00:58:54.647Z,0.00
2022-08-31T00:59:57.769Z,0.00
2022-08-31T01:00:56.023Z,0.00
2022-08-31T01:01:56.240Z,0.00
2022-08-31T01:02:54.826Z,0.00
2022-08-31T01:03:55.126Z,0.00
2022-08-31T01:04:56.292Z,0.00
2022-08-31T01:05:57.635Z,0.00
2022-08-31T01:06:55.898Z,0.00
2022-08-31T01:07:56.197Z,0.00
2022-08-31T01:08:56.511Z,0.00
2022-08-31T01:09:57.603Z,0.00
2022-08-31T01:10:57.119Z,0.00
2022-08-31T01:11:59.284Z,0.00
2022-08-31T01:12:57.665Z,0.00
2022-08-31T01:13:57.933Z,0.00
2022-08-31T01:14:59.170Z,0.00
2022-08-31T01:15:58.630Z,0.00
2022-08-31T01:17:00.729Z,0.00
2022-08-31T01:17:59.109Z,0.00
2022-08-31T01:18:59.406Z,0.00
2022-08-31T01:20:00.760Z,0.00
2022-08-31T01:20:59.983Z,0.00
2022-08-31T01:22:00.285Z,0.00
2022-08-31T01:23:02.478Z,0.00
2022-08-31T01:24:02.670Z,0.00
2022-08-31T01:25:04.851Z,0.00
2022-08-31T01:26:01.534Z,0.00
2022-08-31T01:27:01.840Z,0.00
2022-08-31T01:28:04.013Z,0.00
2022-08-31T01:29:04.198Z,0.00
2022-08-31T01:30:04.379Z,0.00
2022-08-31T01:31:03.010Z,0.00
2022-08-31T01:32:06.649Z,0.00
2022-08-31T01:33:05.377Z,0.00
2022-08-31T01:34:03.871Z,0.00
2022-08-31T01:35:06.071Z,0.00
2022-08-31T01:36:06.370Z,0.00
2022-08-31T01:37:05.771Z,0.00
2022-08-31T01:38:08.393Z,0.00
2022-08-31T01:39:08.624Z,0.00
2022-08-31T01:40:08.821Z,0.00
2022-08-31T01:41:07.505Z,0.00
2022-08-31T01:42:06.249Z,0.00
2022-08-31T01:43:07.492Z,0.00
2022-08-31T01:44:06.857Z,0.00
2022-08-31T01:45:07.168Z,0.00
2022-08-31T01:46:09.346Z,0.00
2022-08-31T01:47:07.753Z,0.00
2022-08-31T01:48:09.924Z,0.00
2022-08-31T01:49:08.302Z,0.00
2022-08-31T01:50:08.601Z,0.00
2022-08-31T01:51:12.393Z,0.00
2022-08-31T01:52:09.956Z,0.00
2022-08-31T01:53:10.374Z,0.00
2022-08-31T01:54:11.634Z,0.00
2022-08-31T01:55:11.821Z,0.00
2022-08-31T01:56:11.365Z,0.00
2022-08-31T01:57:12.514Z,0.00
2022-08-31T01:58:11.681Z,0.00
2022-08-31T01:59:13.063Z,0.00
2022-08-31T02:00:13.245Z,0.00
2022-08-31T02:01:34.404Z,0.00
2022-08-31T02:02:13.128Z,0.00
2022-08-31T02:03:12.323Z,0.00
2022-08-31T02:04:14.505Z,0.00
2022-08-31T02:05:14.694Z,0.00
2022-08-31T02:06:13.205Z,0.00
2022-08-31T02:07:13.514Z,0.00
2022-08-31T02:08:15.671Z,0.00
2022-08-31T02:09:15.865Z,0.00
2022-08-31T02:10:16.025Z,0.00
2022-08-31T02:11:15.556Z,0.00
2022-08-31T02:12:14.927Z,0.00
2022-08-31T02:13:15.233Z,0.00
2022-08-31T02:14:17.442Z,0.00
2022-08-31T02:15:17.731Z,0.00
2022-08-31T02:16:16.222Z,0.00
2022-08-31T02:17:16.395Z,0.00
2022-08-31T02:18:16.696Z,0.00
2022-08-31T02:19:18.895Z,0.00
2022-08-31T02:20:17.261Z,0.00
2022-08-31T02:21:17.601Z,0.00
2022-08-31T02:22:17.866Z,0.00
2022-08-31T02:23:20.095Z,0.00
2022-08-31T02:24:20.203Z,0.00
2022-08-31T02:25:22.377Z,0.00
2022-08-31T02:26:19.153Z,0.00
2022-08-31T02:27:21.357Z,0.00
2022-08-31T02:28:21.531Z,0.00
2022-08-31T02:29:21.732Z,0.00
2022-08-31T02:30:21.906Z,0.00
2022-08-31T02:31:20.699Z,0.00
2022-08-31T02:32:22.839Z,0.00
2022-08-31T02:33:22.993Z,0.00
2022-08-31T02:34:23.180Z,0.00
2022-08-31T02:35:24.850Z,0.00
2022-08-31T02:36:22.234Z,0.00
2022-08-31T02:37:22.555Z,0.00
2022-08-31T02:38:22.864Z,0.00
2022-08-31T02:39:25.046Z,0.00
2022-08-31T02:40:23.478Z,0.00
2022-08-31T02:41:25.584Z,0.00
2022-08-31T02:42:23.961Z,0.00
2022-08-31T02:43:24.903Z,0.00
2022-08-31T02:44:26.445Z,0.00
2022-08-31T02:45:24.830Z,0.00
2022-08-31T02:46:25.182Z,0.00
2022-08-31T02:47:25.448Z,0.00
2022-08-31T02:48:25.750Z,0.00
2022-08-31T02:49:27.928Z,0.00
2022-08-31T02:50:26.305Z,0.00
2022-08-31T02:51:26.603Z,0.00
2022-08-31T02:52:26.898Z,0.00
2022-08-31T02:53:27.225Z,0.00
2022-08-31T02:54:27.518Z,0.00
2022-08-31T02:55:28.216Z,0.00
2022-08-31T02:56:28.060Z,0.00
2022-08-31T02:57:30.250Z,0.00
2022-08-31T02:58:28.641Z,0.00
2022-08-31T02:59:30.817Z,0.00
2022-08-31T03:00:32.961Z,0.00
2022-08-31T03:01:29.581Z,0.00
2022-08-31T03:02:32.330Z,0.00
2022-08-31T03:03:31.880Z,0.00
2022-08-31T03:04:30.259Z,0.00
2022-08-31T03:05:34.472Z,0.00
2022-08-31T03:06:30.903Z,0.00
2022-08-31T03:11:18.582Z,0.00
2022-08-31T03:12:18.877Z,0.00
2022-08-31T03:13:21.089Z,0.00
2022-08-31T03:14:19.606Z,0.00
2022-08-31T03:15:20.675Z,0.00
2022-08-31T03:16:20.123Z,0.00
2022-08-31T03:17:20.287Z,0.00
2022-08-31T03:18:23.960Z,0.00
2022-08-31T03:19:20.867Z,0.00
2022-08-31T03:20:21.173Z,0.00
2022-08-31T03:21:22.192Z,0.00
2022-08-31T03:22:21.809Z,0.00
2022-08-31T03:23:24.804Z,0.00
2022-08-31T03:24:22.460Z,0.00
2022-08-31T03:25:24.578Z,0.00
2022-08-31T03:26:24.995Z,0.00
2022-08-31T03:27:24.391Z,0.00
2022-08-31T03:28:26.613Z,0.00
2022-08-31T03:29:24.704Z,0.00
2022-08-31T03:30:27.628Z,0.00
2022-08-31T03:31:26.258Z,0.00
2022-08-31T03:32:25.851Z,0.00
2022-08-31T03:33:28.173Z,0.00
2022-08-31T03:34:27.230Z,0.00
2022-08-31T03:35:26.692Z,0.00
2022-08-31T03:36:27.958Z,0.00
2022-08-31T03:37:27.014Z,0.00
2022-08-31T03:38:29.486Z,0.00
2022-08-31T03:39:30.061Z,0.00
2022-08-31T03:40:28.021Z,0.00
2022-08-31T03:41:31.222Z,0.00
2022-08-31T03:42:28.584Z,0.00
2022-08-31T03:43:29.372Z,0.00
2022-08-31T03:44:30.121Z,0.00
2022-08-31T03:45:28.377Z,0.00
2022-08-31T03:46:30.672Z,0.00
2022-08-31T03:47:29.892Z,0.00
2022-08-31T03:48:30.753Z,0.00
2022-08-31T03:49:31.456Z,0.00
2022-08-31T03:50:31.642Z,4.00
2022-08-31T03:51:32.017Z,4.00
2022-08-31T03:52:30.393Z,0.00
2022-08-31T03:53:33.673Z,4.00
2022-08-31T03:54:30.949Z,4.00
2022-08-31T03:55:31.265Z,4.00
2022-08-31T03:56:32.443Z,4.00
2022-08-31T03:57:33.826Z,4.00
2022-08-31T03:58:32.930Z,8.00
2022-08-31T03:59:35.774Z,8.00
2022-08-31T04:00:33.517Z,12.00
2022-08-31T04:01:34.836Z,12.00
2022-08-31T04:02:37.467Z,12.00
2022-08-31T04:03:34.244Z,16.00
2022-08-31T04:04:33.644Z,20.00
2022-08-31T04:05:34.835Z,24.00
2022-08-31T04:06:34.213Z,24.00
2022-08-31T04:07:42.147Z,32.00
2022-08-31T04:08:38.915Z,36.00
2022-08-31T04:09:35.070Z,40.00
2022-08-31T04:10:37.271Z,44.00
2022-08-31T04:11:45.454Z,52.00
2022-08-31T04:12:36.895Z,64.00
2022-08-31T04:13:40.056Z,72.00
2022-08-31T04:14:36.494Z,84.00
2022-08-31T04:15:36.854Z,96.00
2022-08-31T04:16:39.033Z,108.00
2022-08-31T04:17:39.182Z,124.00
2022-08-31T04:18:40.488Z,140.00
2022-08-31T04:19:37.909Z,156.00
2022-08-31T04:20:40.096Z,176.00
2022-08-31T04:21:38.503Z,196.00
2022-08-31T04:22:38.776Z,216.00
2022-08-31T04:23:42.057Z,244.00
2022-08-31T04:24:39.232Z,268.00
2022-08-31T04:25:41.432Z,296.00
2022-08-31T04:26:39.875Z,324.00
2022-08-31T04:27:42.072Z,356.00
2022-08-31T04:28:41.314Z,388.00
2022-08-31T04:29:44.127Z,424.00
2022-08-31T04:30:42.886Z,460.00
2022-08-31T04:31:43.012Z,500.00
2022-08-31T04:32:41.557Z,536.00
2022-08-31T04:33:44.938Z,576.00
2022-08-31T04:34:42.241Z,616.00
2022-08-31T04:35:44.437Z,660.00
2022-08-31T04:36:44.637Z,704.00
2022-08-31T04:37:46.933Z,748.00
2022-08-31T04:38:46.291Z,796.00
2022-08-31T04:39:50.607Z,844.00
2022-08-31T04:40:47.160Z,892.00
2022-08-31T04:41:44.364Z,944.00
2022-08-31T04:42:44.729Z,996.00
2022-08-31T04:43:48.939Z,1048.00
2022-08-31T04:44:47.199Z,1104.00
2022-08-31T04:45:46.244Z,1164.00
2022-08-31T04:46:47.707Z,1232.00
2022-08-31T04:47:46.150Z,1300.00
2022-08-31T04:48:46.407Z,1368.00
2022-08-31T04:49:48.540Z,1432.00
2022-08-31T04:50:46.986Z,1496.00
2022-08-31T04:51:49.268Z,1556.00
2022-08-31T04:52:58.398Z,1620.00
2022-08-31T04:53:48.804Z,1676.00
2022-08-31T04:54:50.018Z,1736.00
2022-08-31T04:55:48.318Z,1796.00
2022-08-31T04:56:50.528Z,1852.00
2022-08-31T04:57:50.698Z,1904.00
2022-08-31T04:58:49.168Z,1960.00
2022-08-31T04:59:49.389Z,2012.00
2022-08-31T05:00:49.630Z,2068.00
2022-08-31T05:01:51.925Z,2180.00
2022-08-31T05:02:52.904Z,2340.00
2022-08-31T05:03:52.405Z,2488.00
2022-08-31T05:04:52.604Z,2576.00
2022-08-31T05:05:51.027Z,2640.00
2022-08-31T05:06:51.282Z,2708.00
2022-08-31T05:07:51.508Z,2772.00
2022-08-31T05:08:53.871Z,2832.00
2022-08-31T05:09:54.050Z,2900.00
2022-08-31T05:10:52.378Z,2980.00
2022-08-31T05:11:54.738Z,3044.00
2022-08-31T05:12:52.940Z,3112.00
2022-08-31T05:13:53.167Z,3180.00
2022-08-31T05:14:57.325Z,3252.00
2022-08-31T05:15:54.733Z,3356.00
2022-08-31T05:16:55.830Z,3412.00
2022-08-31T05:17:54.255Z,3480.00
2022-08-31T05:18:57.513Z,3544.00
2022-08-31T05:19:56.661Z,3644.00
2022-08-31T05:20:55.272Z,3752.00
2022-08-31T05:21:56.130Z,3840.00
2022-08-31T05:22:55.713Z,3912.00
2022-08-31T05:23:59.883Z,3996.00
2022-08-31T05:24:58.104Z,4072.00
2022-08-31T05:25:56.524Z,4164.00
2022-08-31T05:26:56.759Z,4272.00
2022-08-31T05:27:58.942Z,4408.00
2022-08-31T05:28:59.302Z,4524.00
2022-08-31T05:29:57.586Z,4680.00
2022-08-31T05:30:57.883Z,4816.00
2022-08-31T05:31:58.099Z,5036.00
2022-08-31T05:33:00.292Z,5192.00
2022-08-31T05:34:00.695Z,5332.00
2022-08-31T05:35:00.942Z,5612.00
2022-08-31T05:36:01.183Z,6008.00
2022-08-31T05:36:59.502Z,6072.00
2022-08-31T05:38:01.680Z,6236.00
2022-08-31T05:39:02.846Z,6800.00
2022-08-31T05:40:02.130Z,7308.00
2022-08-31T05:41:00.654Z,7652.00
2022-08-31T05:42:04.319Z,7792.00
2022-08-31T05:43:03.079Z,8064.00
2022-08-31T05:44:05.237Z,8368.00
2022-08-31T05:45:03.461Z,8740.00
2022-08-31T05:46:10.099Z,8912.00
2022-08-31T05:47:04.036Z,8892.00
2022-08-31T05:48:04.573Z,8976.00
2022-08-31T05:49:05.898Z,9316.00
2022-08-31T05:50:03.277Z,9692.00
2022-08-31T05:51:04.514Z,9508.00
2022-08-31T05:52:03.827Z,9628.00
2022-08-31T05:53:04.132Z,9992.00
2022-08-31T05:54:08.147Z,10492.00
2022-08-31T05:55:04.598Z,10224.00
2022-08-31T05:56:04.839Z,9408.00
2022-08-31T05:57:05.063Z,9952.00
2022-08-31T05:58:05.313Z,11192.00
2022-08-31T05:59:08.519Z,11444.00
2022-08-31T06:00:06.724Z,11320.00
2022-08-31T06:01:06.149Z,10676.00
2022-08-31T06:02:08.398Z,9404.00
2022-08-31T06:03:08.469Z,9972.00
2022-08-31T06:04:08.802Z,10688.00
2022-08-31T06:05:08.953Z,10532.00
2022-08-31T06:06:09.105Z,10396.00
2022-08-31T06:07:09.311Z,11100.00
2022-08-31T06:08:15.093Z,10680.00
2022-08-31T06:09:12.641Z,9648.00
2022-08-31T06:10:08.603Z,10036.00
2022-08-31T06:11:08.847Z,10968.00
2022-08-31T06:12:09.113Z,11020.00
2022-08-31T06:13:09.356Z,10416.00
2022-08-31T06:14:12.054Z,9996.00
2022-08-31T06:15:09.878Z,10056.00
2022-08-31T06:16:10.193Z,10196.00
2022-08-31T06:17:12.322Z,10840.00
2022-08-31T06:18:12.606Z,10836.00
2022-08-31T06:19:13.763Z,10072.00
2022-08-31T06:20:14.277Z,9536.00
2022-08-31T06:21:12.493Z,10120.00
2022-08-31T06:22:11.789Z,10928.00
2022-08-31T06:23:12.022Z,11060.00
2022-08-31T06:24:15.334Z,11300.00
2022-08-31T06:25:14.418Z,11448.00
2022-08-31T06:26:12.872Z,11092.00
2022-08-31T06:27:13.145Z,10940.00
2022-08-31T06:28:13.384Z,10724.00
2022-08-31T06:29:15.621Z,10728.00
2022-08-31T06:30:15.779Z,11428.00
2022-08-31T06:31:16.056Z,11820.00
2022-08-31T06:32:14.457Z,11404.00
2022-08-31T06:33:16.643Z,11288.00
2022-08-31T06:34:16.928Z,11824.00
2022-08-31T06:35:15.245Z,11472.00
2022-08-31T06:36:17.445Z,11756.00
2022-08-31T06:37:18.678Z,12020.00
2022-08-31T06:38:17.939Z,11888.00
2022-08-31T06:39:17.221Z,12236.00
2022-08-31T06:40:18.661Z,12500.00
2022-08-31T06:41:16.945Z,12368.00
2022-08-31T06:42:19.162Z,11688.00
2022-08-31T06:43:17.601Z,11716.00
2022-08-31T06:44:19.289Z,12440.00
2022-08-31T06:45:20.004Z,12572.00
2022-08-31T06:46:20.240Z,13248.00
2022-08-31T06:47:22.105Z,14148.00
2022-08-31T06:48:19.790Z,14448.00
2022-08-31T06:49:22.153Z,14292.00
2022-08-31T06:50:21.159Z,13384.00
2022-08-31T06:51:19.590Z,12780.00
2022-08-31T06:52:19.830Z,13092.00
2022-08-31T06:53:20.248Z,14248.00
2022-08-31T06:54:30.986Z,14716.00
2022-08-31T06:55:23.444Z,14452.00
2022-08-31T06:56:21.324Z,15520.00
2022-08-31T06:57:21.296Z,16512.00
2022-08-31T06:58:23.480Z,16160.00
2022-08-31T06:59:28.464Z,15172.00
2022-08-31T07:00:23.848Z,15152.00
2022-08-31T07:01:35.332Z,16704.00
2022-08-31T07:02:23.685Z,18144.00
2022-08-31T07:03:22.951Z,19328.00
2022-08-31T07:04:27.115Z,19360.00
2022-08-31T07:05:24.495Z,18720.00
2022-08-31T07:06:23.746Z,19808.00
2022-08-31T07:07:23.986Z,23840.00
2022-08-31T07:08:24.255Z,27040.00
2022-08-31T07:09:27.927Z,28000.00
2022-08-31T07:10:26.658Z,25216.00
2022-08-31T07:11:25.095Z,20416.00
2022-08-31T07:12:26.206Z,17152.00
2022-08-31T07:13:25.624Z,16352.00
2022-08-31T07:14:26.686Z,15872.00
2022-08-31T07:15:28.121Z,15552.00
2022-08-31T07:16:26.481Z,15328.00
2022-08-31T07:17:26.714Z,14780.00
2022-08-31T07:18:26.960Z,14568.00
2022-08-31T07:19:30.279Z,14288.00
2022-08-31T07:20:29.356Z,14040.00
2022-08-31T07:21:29.549Z,14044.00
2022-08-31T07:22:30.260Z,14040.00
2022-08-31T07:23:28.574Z,13984.00
2022-08-31T07:24:31.850Z,13872.00
2022-08-31T07:25:30.990Z,13848.00
2022-08-31T07:26:31.566Z,13984.00
2022-08-31T07:27:32.491Z,14052.00
2022-08-31T07:28:29.810Z,14036.00
2022-08-31T07:29:30.848Z,14180.00
2022-08-31T07:30:33.426Z,14320.00
2022-08-31T07:31:30.562Z,14492.00
2022-08-31T07:32:30.809Z,14780.00
2022-08-31T07:33:31.055Z,14996.00
2022-08-31T07:34:32.161Z,15140.00
2022-08-31T07:35:31.613Z,15148.00
2022-08-31T07:36:31.884Z,15380.00
2022-08-31T07:37:32.155Z,15740.00
2022-08-31T07:38:32.404Z,16184.00
2022-08-31T07:39:36.525Z,17312.00
2022-08-31T07:40:33.828Z,18496.00
2022-08-31T07:41:33.237Z,19264.00
2022-08-31T07:42:33.480Z,19776.00
2022-08-31T07:43:33.757Z,20576.00
2022-08-31T07:44:34.788Z,21920.00
2022-08-31T07:45:39.358Z,22368.00
2022-08-31T07:46:34.589Z,22272.00
2022-08-31T07:47:38.177Z,23680.00
2022-08-31T07:48:35.097Z,26976.00
2022-08-31T07:49:36.885Z,31648.00
2022-08-31T07:50:38.508Z,34176.00
2022-08-31T07:51:36.939Z,35200.00
2022-08-31T07:52:37.089Z,36928.00
2022-08-31T07:53:37.510Z,37632.00
2022-08-31T07:54:39.719Z,38400.00
2022-08-31T07:55:40.362Z,39168.00
2022-08-31T07:56:38.245Z,39328.00
2022-08-31T07:57:38.401Z,39200.00
2022-08-31T07:58:38.821Z,40000.00
2022-08-31T07:59:41.971Z,40736.00
2022-08-31T08:00:38.432Z,39936.00
2022-08-31T08:01:42.142Z,40064.00
2022-08-31T08:02:38.996Z,42016.00
2022-08-31T08:03:39.257Z,43712.00
2022-08-31T08:04:42.603Z,43392.00
2022-08-31T08:05:40.812Z,44416.00
2022-08-31T08:06:41.124Z,46112.00
2022-08-31T08:07:42.274Z,45664.00
2022-08-31T08:08:41.445Z,44640.00
2022-08-31T08:09:42.794Z,43808.00
2022-08-31T08:10:42.017Z,44928.00
2022-08-31T08:11:42.176Z,45536.00
2022-08-31T08:12:43.533Z,46144.00
2022-08-31T08:13:43.717Z,45664.00
2022-08-31T08:14:43.675Z,46880.00
2022-08-31T08:15:44.446Z,47264.00
2022-08-31T08:16:43.781Z,38688.00
2022-08-31T08:17:43.905Z,47584.00
2022-08-31T08:18:45.256Z,47872.00
2022-08-31T08:19:46.924Z,48608.00
2022-08-31T08:20:44.007Z,48960.00
2022-08-31T08:21:45.196Z,48800.00
2022-08-31T08:22:54.981Z,51168.00
2022-08-31T08:23:47.677Z,49248.00
2022-08-31T08:24:46.839Z,50272.00
2022-08-31T08:25:47.191Z,18592.00
2022-08-31T08:26:50.915Z,42336.00
2022-08-31T08:27:48.640Z,26496.00
2022-08-31T08:28:47.278Z,49568.00
2022-08-31T08:29:47.957Z,53664.00
2022-08-31T08:30:48.662Z,21568.00
2022-08-31T08:31:48.878Z,26080.00
2022-08-31T08:32:49.017Z,43296.00
2022-08-31T08:33:49.199Z,51520.00
2022-08-31T08:34:47.882Z,54464.00
2022-08-31T08:35:48.122Z,15724.00
2022-08-31T08:36:50.310Z,17700.00
2022-08-31T08:37:58.339Z,20128.00
2022-08-31T08:38:51.809Z,18752.00
2022-08-31T08:39:50.981Z,21056.00
2022-08-31T08:40:51.191Z,67264.00
2022-08-31T08:41:51.325Z,65088.00
2022-08-31T08:42:52.019Z,16004.00
2022-08-31T08:43:52.781Z,24288.00
2022-08-31T08:44:50.585Z,58624.00
2022-08-31T08:45:52.815Z,63008.00
2022-08-31T08:46:53.026Z,55584.00
2022-08-31T08:47:51.361Z,46592.00
2022-08-31T08:48:55.513Z,15800.00
2022-08-31T08:49:54.578Z,17716.00
2022-08-31T08:50:54.128Z,67296.00
2022-08-31T08:51:54.298Z,65376.00
2022-08-31T08:52:52.860Z,66688.00
2022-08-31T08:53:56.998Z,54144.00
2022-08-31T08:54:53.339Z,67776.00
2022-08-31T08:55:55.513Z,37152.00
2022-08-31T08:56:55.684Z,67008.00
2022-08-31T08:57:54.133Z,50400.00
2022-08-31T08:58:55.335Z,20832.00
2022-08-31T08:59:56.617Z,27424.00
2022-08-31T09:00:56.777Z,67904.00
2022-08-31T09:01:55.312Z,22144.00
2022-08-31T09:02:55.601Z,63232.00
2022-08-31T09:03:56.902Z,61600.00
2022-08-31T09:04:56.217Z,20512.00
2022-08-31T09:05:58.538Z,42048.00
2022-08-31T09:06:58.591Z,57888.00
2022-08-31T09:07:57.031Z,58976.00
2022-08-31T09:08:58.223Z,58656.00
2022-08-31T09:09:57.541Z,49792.00
2022-08-31T09:10:59.728Z,62592.00
2022-08-31T09:11:59.911Z,63424.00
2022-08-31T09:12:58.353Z,64960.00
2022-08-31T09:13:59.523Z,65600.00
2022-08-31T09:14:58.833Z,64768.00
2022-08-31T09:15:59.112Z,66080.00
2022-08-31T09:17:01.252Z,67264.00
2022-08-31T09:18:01.435Z,66528.00
2022-08-31T09:19:01.543Z,66944.00
2022-08-31T09:20:00.289Z,68768.00
2022-08-31T09:21:01.409Z,67136.00
2022-08-31T09:22:02.682Z,68960.00
2022-08-31T09:23:02.881Z,69984.00
2022-08-31T09:24:02.196Z,69376.00
2022-08-31T09:25:03.543Z,68192.00
2022-08-31T09:26:06.193Z,68832.00
2022-08-31T09:27:03.110Z,69344.00
2022-08-31T09:28:02.411Z,69600.00
2022-08-31T09:29:03.456Z,71552.00
2022-08-31T09:30:02.896Z,71840.00
2022-08-31T09:31:03.217Z,73504.00
2022-08-31T09:32:06.368Z,78272.00
2022-08-31T09:33:03.693Z,77856.00
2022-08-31T09:34:04.771Z,72320.00
2022-08-31T09:35:06.246Z,54656.00
2022-08-31T09:36:04.557Z,53664.00
2022-08-31T09:37:06.738Z,62912.00
2022-08-31T09:38:05.140Z,65632.00
2022-08-31T09:39:06.343Z,63744.00
2022-08-31T09:40:07.525Z,66176.00
2022-08-31T09:41:05.944Z,66624.00
2022-08-31T09:42:07.251Z,62816.00
2022-08-31T09:43:06.684Z,68768.00
2022-08-31T09:44:07.648Z,69952.00
2022-08-31T09:45:07.089Z,71712.00
2022-08-31T09:46:07.457Z,73600.00
2022-08-31T09:47:09.575Z,69184.00
2022-08-31T09:48:07.890Z,72224.00
2022-08-31T09:49:08.961Z,74016.00
2022-08-31T09:50:08.412Z,74720.00
2022-08-31T09:51:08.684Z,77696.00
2022-08-31T09:52:12.829Z,81344.00
2022-08-31T09:53:09.167Z,80864.00
2022-08-31T09:54:12.842Z,81984.00
2022-08-31T09:55:09.664Z,84640.00
2022-08-31T09:56:09.907Z,83232.00
2022-08-31T09:57:10.219Z,82016.00
2022-08-31T09:58:13.850Z,76544.00
2022-08-31T09:59:11.319Z,76288.00
2022-08-31T10:00:11.155Z,74656.00
2022-08-31T10:01:14.824Z,80128.00
2022-08-31T10:02:12.582Z,80992.00
2022-08-31T10:03:13.846Z,83744.00
2022-08-31T10:04:13.632Z,78432.00
2022-08-31T10:05:13.387Z,72640.00
2022-08-31T10:06:13.747Z,75072.00
2022-08-31T10:07:13.893Z,77952.00
2022-08-31T10:08:19.354Z,80672.00
2022-08-31T10:09:14.944Z,84000.00
2022-08-31T10:10:28.346Z,84032.00
2022-08-31T10:11:15.019Z,83328.00
2022-08-31T10:12:14.330Z,80896.00
2022-08-31T10:13:16.512Z,82752.00
2022-08-31T10:14:16.806Z,83168.00
2022-08-31T10:15:16.802Z,85184.00
2022-08-31T10:16:17.116Z,83520.00
2022-08-31T10:17:17.189Z,26816.00
2022-08-31T10:18:15.875Z,38208.00
2022-08-31T10:19:19.097Z,45568.00
2022-08-31T10:20:18.309Z,13772.00
2022-08-31T10:21:18.456Z,13336.00
2022-08-31T10:22:18.626Z,12624.00
2022-08-31T10:23:19.515Z,12636.00
2022-08-31T10:24:21.482Z,12896.00
2022-08-31T10:25:19.713Z,13064.00
2022-08-31T10:26:18.169Z,13344.00
2022-08-31T10:27:20.353Z,13788.00
2022-08-31T10:28:21.278Z,14528.00
2022-08-31T10:29:23.636Z,18060.00
2022-08-31T10:30:21.142Z,17592.00
2022-08-31T10:31:19.641Z,59168.00
2022-08-31T10:32:20.779Z,89728.00
2022-08-31T10:33:21.968Z,84160.00
2022-08-31T10:34:23.593Z,14888.00
2022-08-31T10:35:22.416Z,14084.00
2022-08-31T10:36:23.074Z,14584.00
2022-08-31T10:37:23.235Z,15036.00
2022-08-31T10:38:23.424Z,14876.00
2022-08-31T10:39:24.904Z,14852.00
2022-08-31T10:40:22.285Z,15448.00
2022-08-31T10:41:22.494Z,29792.00
2022-08-31T10:42:22.741Z,14992.00
2022-08-31T10:43:24.933Z,15492.00
2022-08-31T10:44:26.216Z,36704.00
2022-08-31T10:45:25.318Z,82208.00
2022-08-31T10:46:26.088Z,84128.00
2022-08-31T10:47:33.901Z,80128.00
2022-08-31T10:48:27.368Z,93536.00
2022-08-31T10:49:27.779Z,81792.00
2022-08-31T10:50:25.113Z,99584.00
2022-08-31T10:51:27.306Z,82688.00
2022-08-31T10:52:27.499Z,87616.00
2022-08-31T10:53:27.683Z,26816.00
2022-08-31T10:54:27.041Z,92832.00
2022-08-31T10:55:27.998Z,75456.00
2022-08-31T10:56:28.691Z,84800.00
2022-08-31T10:57:31.463Z,76928.00
2022-08-31T10:58:29.266Z,80800.00
2022-08-31T10:59:30.662Z,83456.00
2022-08-31T11:00:27.876Z,77536.00
2022-08-31T11:01:30.135Z,87456.00
2022-08-31T11:02:28.372Z,71328.00
2022-08-31T11:03:30.618Z,87840.00
2022-08-31T11:04:32.032Z,67840.00
2022-08-31T11:05:29.203Z,85824.00
2022-08-31T11:06:31.397Z,71328.00
2022-08-31T11:07:29.705Z,88672.00
2022-08-31T11:08:31.865Z,83456.00
2022-08-31T11:09:34.015Z,86400.00
2022-08-31T11:10:30.486Z,94688.00
2022-08-31T11:11:32.673Z,84256.00
2022-08-31T11:12:31.055Z,109504.00
2022-08-31T11:13:33.244Z,88960.00
2022-08-31T11:14:34.597Z,114720.00
2022-08-31T11:15:33.643Z,92896.00
2022-08-31T11:16:33.786Z,111296.00
2022-08-31T11:17:32.434Z,24640.00
2022-08-31T11:18:34.619Z,18976.00
2022-08-31T11:19:35.909Z,20352.00
2022-08-31T11:20:33.242Z,92736.00
2022-08-31T11:21:35.525Z,112384.00
2022-08-31T11:22:33.850Z,94496.00
2022-08-31T11:23:42.267Z,111328.00
2022-08-31T11:24:37.456Z,85728.00
2022-08-31T11:25:34.599Z,25568.00
2022-08-31T11:26:36.788Z,24960.00
2022-08-31T11:27:35.109Z,70976.00
2022-08-31T11:28:37.292Z,24384.00
2022-08-31T11:29:36.489Z,23456.00
2022-08-31T11:30:40.002Z,23456.00
2022-08-31T11:31:39.191Z,23296.00
2022-08-31T11:32:36.469Z,23680.00
2022-08-31T11:33:38.662Z,24192.00
2022-08-31T11:34:40.804Z,24608.00
2022-08-31T11:35:43.349Z,24736.00
2022-08-31T11:36:38.509Z,24384.00
2022-08-31T11:37:39.687Z,24192.00
2022-08-31T11:38:39.877Z,24096.00
2022-08-31T11:39:41.421Z,25696.00
2022-08-31T11:40:38.837Z,101120.00
2022-08-31T11:41:39.077Z,86464.00
2022-08-31T11:42:41.278Z,22944.00
2022-08-31T11:43:39.574Z,20672.00
2022-08-31T11:44:43.250Z,28800.00
2022-08-31T11:45:40.171Z,21120.00
2022-08-31T11:46:40.436Z,23936.00
2022-08-31T11:47:40.625Z,82240.00
2022-08-31T11:48:42.819Z,82912.00
2022-08-31T11:49:44.977Z,96640.00
2022-08-31T11:50:41.438Z,82208.00
2022-08-31T11:51:41.971Z,99328.00
2022-08-31T11:52:43.860Z,51968.00
2022-08-31T11:53:44.070Z,22784.00
2022-08-31T11:54:44.252Z,21120.00
2022-08-31T11:55:42.940Z,20608.00
2022-08-31T11:56:45.118Z,21024.00
2022-08-31T11:57:43.510Z,23424.00
2022-08-31T11:58:45.723Z,103424.00
2022-08-31T11:59:45.896Z,93152.00
2022-08-31T12:00:44.344Z,99936.00
2022-08-31T12:01:47.534Z,98400.00
2022-08-31T12:02:44.935Z,98624.00
2022-08-31T12:03:46.050Z,96544.00
2022-08-31T12:04:45.494Z,103072.00
2022-08-31T12:05:45.785Z,95424.00
2022-08-31T12:06:46.016Z,23936.00
2022-08-31T12:07:50.186Z,25120.00
2022-08-31T12:08:46.582Z,23808.00
2022-08-31T12:09:46.824Z,19040.00
2022-08-31T12:10:50.977Z,18720.00
2022-08-31T12:11:47.316Z,19424.00
2022-08-31T12:12:48.538Z,19840.00
2022-08-31T12:13:47.827Z,20352.00
2022-08-31T12:14:49.060Z,22400.00
2022-08-31T12:15:51.795Z,84800.00
2022-08-31T12:16:49.639Z,107488.00
2022-08-31T12:17:50.430Z,119264.00
2022-08-31T12:18:50.220Z,104096.00
2022-08-31T12:19:50.368Z,108224.00
2022-08-31T12:20:51.852Z,105216.00
2022-08-31T12:21:50.945Z,106208.00
2022-08-31T12:22:53.411Z,100640.00
2022-08-31T12:23:51.522Z,100736.00